Terminal Aerodrome Forecast
Issued by NWS

Home | Current Version | Previous Version | Text Only | Print | Product List | Glossary On
Versions: 1 2 3 4 5 6 7 8 9 10 11 12 13 14 15 16 17
000
FTUS46 KSEW 250025 AAA
TAFBLI
TAF AMD
KBLI 250025Z 2500/2524 15019G23KT P6SM OVC026
     FM250800 15015G22KT P6SM SCT026 OVC060
     FM251200 16012KT P6SM SCT070 OVC150
     FM252000 03008KT P6SM OVC070=

USA.gov is the U.S. government's official web portal to all federal, state and local government web resources and services.